createdAt,value
2023-08-17T00:00:09.897Z,98771.53
2023-08-17T00:02:57.430Z,98778.00
2023-08-17T00:05:25.185Z,98778.00
2023-08-17T00:07:52.744Z,98773.63
2023-08-17T00:10:20.163Z,98781.72
2023-08-17T00:12:47.724Z,98780.91
2023-08-17T00:15:15.027Z,98777.41
2023-08-17T00:17:42.614Z,98781.19
2023-08-17T00:20:10.945Z,98776.81
2023-08-17T00:22:38.702Z,98782.22
2023-08-17T00:25:06.609Z,98772.50
2023-08-17T00:27:34.435Z,98772.75
2023-08-17T00:30:01.811Z,98768.41
2023-08-17T00:32:29.357Z,98775.66
2023-08-17T00:34:56.670Z,98781.06
2023-08-17T00:37:24.459Z,98774.25
2023-08-17T00:39:53.126Z,98781.53
2023-08-17T00:42:20.664Z,98785.25
2023-08-17T00:44:48.049Z,98778.25
2023-08-17T00:47:15.839Z,98784.69
2023-08-17T00:49:43.399Z,98792.75
2023-08-17T00:52:11.596Z,98798.41
2023-08-17T00:54:39.106Z,98794.88
2023-08-17T00:57:07.811Z,98809.44
2023-08-17T00:59:37.096Z,98807.78
2023-08-17T01:02:06.082Z,98811.53
2023-08-17T01:04:33.622Z,98823.41
2023-08-17T01:07:01.542Z,98823.41
2023-08-17T01:09:29.339Z,98816.56
2023-08-17T01:12:25.643Z,98806.63
2023-08-17T01:14:59.036Z,98805.81
2023-08-17T01:17:32.804Z,98803.38
2023-08-17T01:20:05.171Z,98801.72
2023-08-17T01:22:34.441Z,98808.97
2023-08-17T01:25:01.791Z,98806.50
2023-08-17T01:27:40.905Z,98807.59
2023-08-17T01:30:10.824Z,98805.94
2023-08-17T01:33:00.891Z,98812.41
2023-08-17T01:35:48.985Z,98808.06
2023-08-17T01:38:20.174Z,98801.03
2023-08-17T01:40:49.119Z,98809.34
2023-08-17T01:43:17.781Z,98813.94
2023-08-17T01:45:45.241Z,98806.88
2023-08-17T01:48:12.878Z,98814.97
2023-08-17T01:50:40.538Z,98819.31
2023-08-17T01:53:08.260Z,98819.31
2023-08-17T01:55:36.521Z,98818.72
2023-08-17T01:58:04.371Z,98819.53
2023-08-17T02:00:31.662Z,98820.63
2023-08-17T02:02:59.277Z,98814.41
2023-08-17T02:05:29.363Z,98814.63
2023-08-17T02:07:57.124Z,98805.75
2023-08-17T02:10:24.473Z,98804.91
2023-08-17T02:12:58.872Z,98802.47
2023-08-17T02:15:29.345Z,98807.84
2023-08-17T02:18:00.776Z,98806.19
2023-08-17T02:20:28.141Z,98811.59
2023-08-17T02:22:55.812Z,98811.59
2023-08-17T02:25:23.411Z,98816.16
2023-08-17T02:27:51.549Z,98816.16
2023-08-17T02:30:19.477Z,98806.44
2023-08-17T02:32:47.139Z,98809.38
2023-08-17T02:35:14.406Z,98806.69
2023-08-17T02:37:42.024Z,98805.03
2023-08-17T02:40:09.792Z,98810.69
2023-08-17T02:42:37.498Z,98803.41
2023-08-17T02:45:05.116Z,98803.63
2023-08-17T02:47:32.731Z,98800.94
2023-08-17T02:50:00.209Z,98810.09
2023-08-17T02:52:27.749Z,98803.06
2023-08-17T02:54:55.137Z,98806.34
2023-08-17T02:57:22.847Z,98806.56
2023-08-17T02:59:50.154Z,98812.78
2023-08-17T03:02:17.719Z,98807.63
2023-08-17T03:04:44.957Z,98803.28
2023-08-17T03:07:12.572Z,98800.59
2023-08-17T03:09:39.925Z,98805.97
2023-08-17T03:12:07.669Z,98798.97
2023-08-17T03:14:34.999Z,98797.34
2023-08-17T03:17:02.666Z,98796.50
2023-08-17T03:19:29.959Z,98801.06
2023-08-17T03:21:57.518Z,98801.06
2023-08-17T03:24:24.804Z,98799.47
2023-08-17T03:26:52.820Z,98807.53
2023-08-17T03:29:20.187Z,98803.19
2023-08-17T03:31:47.794Z,98801.56
2023-08-17T03:34:15.123Z,98803.19
2023-08-17T03:36:42.697Z,98802.38
2023-08-17T03:39:10.039Z,98805.28
2023-08-17T03:41:37.865Z,98809.66
2023-08-17T03:44:07.012Z,98806.09
2023-08-17T03:46:34.890Z,98805.28
2023-08-17T03:49:02.219Z,98818.75
2023-08-17T03:51:29.780Z,98825.81
2023-08-17T03:53:57.040Z,98819.84
2023-08-17T03:56:24.652Z,98816.06
2023-08-17T03:58:54.016Z,98808.22
2023-08-17T04:01:21.674Z,98811.50
2023-08-17T04:03:49.022Z,98802.03
2023-08-17T04:06:16.840Z,98810.09
2023-08-17T04:08:44.186Z,98824.38
2023-08-17T04:11:11.826Z,98826.25
2023-08-17T04:13:44.164Z,98836.00
2023-08-17T04:16:11.811Z,98826.25
2023-08-17T04:18:39.159Z,98827.31
2023-08-17T04:21:06.809Z,98823.56
2023-08-17T04:23:34.099Z,98825.22
2023-08-17T04:26:01.637Z,98830.84
2023-08-17T04:28:28.982Z,98830.59
2023-08-17T04:30:56.521Z,98834.91
2023-08-17T04:33:23.827Z,98844.66
2023-08-17T04:35:51.556Z,98845.25
2023-08-17T04:38:18.864Z,98851.66
2023-08-17T04:40:46.476Z,98857.06
2023-08-17T04:43:14.120Z,98858.94
2023-08-17T04:45:41.803Z,98857.06
2023-08-17T04:48:09.368Z,98859.16
2023-08-17T04:50:37.385Z,98859.16
2023-08-17T04:53:04.737Z,98860.22
2023-08-17T04:55:35.903Z,98854.84
2023-08-17T04:58:03.317Z,98855.88
2023-08-17T05:00:31.752Z,98861.28
2023-08-17T05:02:59.128Z,98863.97
2023-08-17T05:05:26.888Z,98866.66
2023-08-17T05:07:54.359Z,98872.28
2023-08-17T05:10:21.933Z,98868.75
2023-08-17T05:12:49.323Z,98870.88
2023-08-17T05:15:17.048Z,98876.25
2023-08-17T05:17:44.357Z,98874.63
2023-08-17T05:20:13.904Z,98881.06
2023-08-17T05:22:41.369Z,98885.63
2023-08-17T05:25:09.282Z,98882.13
2023-08-17T05:27:36.562Z,98887.03
2023-08-17T05:30:04.682Z,98892.41
2023-08-17T05:32:32.066Z,98891.38
2023-08-17T05:34:59.620Z,98898.66
2023-08-17T05:37:27.624Z,98894.06
2023-08-17T05:39:55.305Z,98890.31
2023-08-17T05:42:22.602Z,98894.06
2023-08-17T05:44:50.328Z,98897.34
2023-08-17T05:47:20.145Z,98891.97
2023-08-17T05:49:47.683Z,98890.31
2023-08-17T05:52:14.968Z,98892.41
2023-08-17T05:54:43.641Z,98899.44
2023-08-17T05:57:11.791Z,98899.44
2023-08-17T05:59:39.333Z,98894.88
2023-08-17T06:02:06.704Z,98890.31
2023-08-17T06:04:34.380Z,98889.50
2023-08-17T06:07:01.843Z,98891.97
2023-08-17T06:09:29.394Z,98878.94
2023-08-17T06:11:56.665Z,98887.88
2023-08-17T06:14:24.432Z,98888.69
2023-08-17T06:16:51.729Z,98895.69
2023-08-17T06:19:19.372Z,98881.19
2023-08-17T06:21:46.668Z,98886.81
2023-08-17T06:24:14.302Z,98884.91
2023-08-17T06:26:41.584Z,98891.97
2023-08-17T06:29:09.137Z,98890.91
2023-08-17T06:31:36.571Z,98893.59
2023-08-17T06:34:04.968Z,98890.09
2023-08-17T06:36:33.684Z,98890.91
2023-08-17T06:39:01.544Z,98893.59
2023-08-17T06:41:28.868Z,98896.88
2023-08-17T06:43:56.413Z,98885.06
2023-08-17T06:46:25.609Z,98887.75
2023-08-17T06:48:53.224Z,98889.38
2023-08-17T06:51:20.523Z,98893.72
2023-08-17T06:53:48.056Z,98889.97
2023-08-17T06:56:15.340Z,98890.78
2023-08-17T06:58:42.954Z,98887.28
2023-08-17T07:01:10.904Z,98893.47
2023-08-17T07:03:39.427Z,98892.44
2023-08-17T07:06:06.941Z,98885.16
2023-08-17T07:08:34.507Z,98894.88
2023-08-17T07:11:01.820Z,98885.97
2023-08-17T07:13:29.568Z,98891.38
2023-08-17T07:15:57.051Z,98885.16
2023-08-17T07:18:24.973Z,98888.66
2023-08-17T07:20:52.240Z,98885.97
2023-08-17T07:23:19.835Z,98883.53
2023-08-17T07:25:47.272Z,98889.75
2023-08-17T07:28:16.635Z,98885.97
2023-08-17T07:30:43.941Z,98894.88
2023-08-17T07:33:11.597Z,98899.22
2023-08-17T07:35:38.981Z,98893.81
2023-08-17T07:38:09.418Z,98883.06
2023-08-17T07:40:37.324Z,98893.81
2023-08-17T07:43:05.514Z,98890.06
2023-08-17T07:45:32.829Z,98886.34
2023-08-17T07:48:00.492Z,98893.34
2023-08-17T07:50:27.780Z,98890.44
2023-08-17T07:52:55.281Z,98892.91
2023-08-17T07:55:22.663Z,98889.94
2023-08-17T07:57:50.212Z,98890.78
2023-08-17T08:00:17.813Z,98886.00
2023-08-17T08:02:45.793Z,98891.13
2023-08-17T08:05:15.224Z,98883.63
2023-08-17T08:07:43.506Z,98893.09
2023-08-17T08:10:10.859Z,98891.00
2023-08-17T08:12:38.613Z,98883.50
2023-08-17T08:15:06.340Z,98886.78
2023-08-17T08:17:34.158Z,98886.53
2023-08-17T08:20:01.726Z,98880.94
2023-08-17T08:22:29.286Z,98885.25
2023-08-17T08:24:56.775Z,98887.94
2023-08-17T08:27:24.568Z,98878.81
2023-08-17T08:29:52.044Z,98875.06
2023-08-17T08:32:19.578Z,98880.22
2023-08-17T08:34:47.120Z,98878.91
2023-08-17T08:37:15.100Z,98877.03
2023-08-17T08:39:53.026Z,98871.19
2023-08-17T08:42:21.874Z,98871.19
2023-08-17T08:44:50.648Z,98870.69
2023-08-17T08:47:19.106Z,98871.50
2023-08-17T08:50:03.801Z,98868.38
2023-08-17T08:52:35.772Z,98865.06
2023-08-17T08:55:13.367Z,98865.69
2023-08-17T08:57:42.537Z,98867.31
2023-08-17T09:00:10.656Z,98852.78
2023-08-17T09:02:38.266Z,98866.84
2023-08-17T09:05:11.335Z,98860.41
2023-08-17T09:07:42.382Z,98854.78
2023-08-17T09:10:11.389Z,98851.81
2023-08-17T09:12:41.596Z,98847.28
2023-08-17T09:15:10.215Z,98844.88
2023-08-17T09:17:38.143Z,98848.44
2023-08-17T09:20:08.341Z,98845.47
2023-08-17T09:22:44.826Z,98847.13
2023-08-17T09:25:12.387Z,98838.78
2023-08-17T09:27:40.347Z,98843.94
2023-08-17T09:30:10.289Z,98840.19
2023-08-17T09:32:38.113Z,98838.09
2023-08-17T09:35:06.730Z,98832.91
2023-08-17T09:37:34.964Z,98841.59
2023-08-17T09:40:02.501Z,98837.00
2023-08-17T09:42:30.248Z,98833.28
2023-08-17T09:44:58.937Z,98826.56
2023-08-17T09:47:27.721Z,98825.28
2023-08-17T09:49:55.936Z,98826.88
2023-08-17T09:52:25.271Z,98813.97
2023-08-17T09:54:55.625Z,98818.91
2023-08-17T09:57:23.939Z,98811.13
2023-08-17T09:59:54.780Z,98807.97
2023-08-17T10:02:27.272Z,98812.06
2023-08-17T10:04:55.200Z,98810.38
2023-08-17T10:07:33.372Z,98820.91
2023-08-17T10:10:05.143Z,98811.75
2023-08-17T10:12:54.348Z,98818.78
2023-08-17T10:15:25.296Z,98816.19
2023-08-17T10:18:40.852Z,98812.66
2023-08-17T10:21:18.692Z,98812.91
2023-08-17T10:23:47.214Z,98814.53
2023-08-17T10:26:14.595Z,98812.41
2023-08-17T10:28:42.905Z,98800.66
2023-08-17T10:31:11.475Z,98806.63
2023-08-17T10:33:43.092Z,98799.34
2023-08-17T10:36:11.582Z,98795.91
2023-08-17T10:38:39.227Z,98796.03
2023-08-17T10:41:18.564Z,98803.88
2023-08-17T10:43:59.677Z,98796.59
2023-08-17T10:46:35.080Z,98802.56
2023-08-17T10:49:09.296Z,98810.16
2023-08-17T10:51:36.811Z,98807.69
2023-08-17T10:54:05.417Z,98811.25
2023-08-17T10:56:33.889Z,98812.88
2023-08-17T10:59:02.951Z,98806.41
2023-08-17T11:01:36.582Z,98804.75
2023-08-17T11:04:33.629Z,98808.19
2023-08-17T11:07:05.144Z,98814.09
2023-08-17T11:09:36.057Z,98827.84
2023-08-17T11:12:03.758Z,98811.06
2023-08-17T11:14:34.996Z,98807.22
2023-08-17T11:17:06.477Z,98802.06
2023-08-17T11:19:34.363Z,98804.44
2023-08-17T11:22:01.998Z,98814.63
2023-08-17T11:24:29.755Z,98824.84
2023-08-17T11:26:57.874Z,98851.47
2023-08-17T11:29:26.345Z,98913.78
2023-08-17T11:31:54.131Z,98901.84
2023-08-17T11:34:21.795Z,98877.94
2023-08-17T11:36:49.088Z,98934.47
2023-08-17T11:39:16.737Z,98899.69
2023-08-17T11:41:44.387Z,98858.41
2023-08-17T11:44:12.312Z,98856.75
2023-08-17T11:46:39.720Z,98866.50
2023-08-17T11:49:07.881Z,98860.25
2023-08-17T11:51:36.158Z,98864.84
2023-08-17T11:54:05.950Z,98870.25
2023-08-17T11:56:33.254Z,98871.31
2023-08-17T11:59:10.132Z,98868.63
2023-08-17T12:01:37.730Z,98877.75
2023-08-17T12:04:06.709Z,98883.97
2023-08-17T12:06:34.281Z,98885.84
2023-08-17T12:09:01.970Z,98875.06
2023-08-17T12:11:30.192Z,98882.34
2023-08-17T12:13:58.835Z,98880.69
2023-08-17T12:16:26.168Z,98884.44
2023-08-17T12:18:54.386Z,98890.66
2023-08-17T12:21:26.282Z,98885.25
2023-08-17T12:23:54.136Z,98874.47
2023-08-17T12:26:22.500Z,98875.56
2023-08-17T12:28:50.663Z,98878.25
2023-08-17T12:31:22.873Z,98873.66
2023-08-17T12:33:51.576Z,98887.38
2023-08-17T12:36:19.841Z,98883.63
2023-08-17T12:38:49.059Z,98887.38
2023-08-17T12:41:17.231Z,98881.97
2023-08-17T12:43:44.806Z,98888.19
2023-08-17T12:46:12.214Z,98886.56
2023-08-17T12:48:40.515Z,98893.59
2023-08-17T12:51:07.869Z,98894.44
2023-08-17T12:53:35.523Z,98898.16
2023-08-17T12:56:02.979Z,98917.03
2023-08-17T12:58:30.620Z,98919.75
2023-08-17T13:00:58.040Z,98921.41
2023-08-17T13:03:25.735Z,98931.34
2023-08-17T13:05:53.159Z,98925.94
2023-08-17T13:08:20.881Z,98924.31
2023-08-17T13:10:48.238Z,98927.84
2023-08-17T13:13:15.873Z,98925.13
2023-08-17T13:15:43.225Z,98927.84
2023-08-17T13:18:11.048Z,98914.34
2023-08-17T13:20:39.601Z,98925.94
2023-08-17T13:23:07.468Z,98929.72
2023-08-17T13:25:35.057Z,98919.75
2023-08-17T13:28:02.752Z,98921.41
2023-08-17T13:30:30.160Z,98924.09
2023-08-17T13:32:58.080Z,98914.34
2023-08-17T13:35:25.738Z,98906.25
2023-08-17T13:37:54.723Z,98898.16
2023-08-17T13:40:22.656Z,98897.13
2023-08-17T13:42:50.363Z,98900.63
2023-08-17T13:45:18.142Z,98892.78
2023-08-17T13:47:45.770Z,98889.03
2023-08-17T13:50:13.152Z,98880.94
2023-08-17T13:52:41.258Z,98865.81
2023-08-17T13:55:09.102Z,98865.00
2023-08-17T13:57:36.780Z,98851.28
2023-08-17T14:00:05.196Z,98838.03
2023-08-17T14:02:33.231Z,98835.31
2023-08-17T14:05:00.852Z,98842.59
2023-08-17T14:07:28.794Z,98828.03
2023-08-17T14:10:07.436Z,98828.03
2023-08-17T14:12:38.392Z,98821.84
2023-08-17T14:15:06.473Z,98806.47
2023-08-17T14:17:34.235Z,98803.19
2023-08-17T14:20:01.560Z,98815.63
2023-08-17T14:22:29.355Z,98821.03
2023-08-17T14:24:56.872Z,98831.81
2023-08-17T14:27:24.707Z,98828.03
2023-08-17T14:29:52.523Z,98838.84
2023-08-17T14:32:20.090Z,98841.53
2023-08-17T14:34:47.381Z,98845.31
2023-08-17T14:37:15.162Z,98837.22
2023-08-17T14:39:42.658Z,98833.72
2023-08-17T14:42:10.306Z,98831.81
2023-08-17T14:44:37.668Z,98821.03
2023-08-17T14:47:05.464Z,98815.63
2023-08-17T14:49:32.922Z,98817.25
2023-08-17T14:52:00.464Z,98801.34
2023-08-17T14:54:27.761Z,98804.84
2023-08-17T14:56:57.715Z,98810.25
2023-08-17T14:59:25.220Z,98817.25
2023-08-17T15:01:53.851Z,98817.25
2023-08-17T15:04:25.876Z,98818.34
2023-08-17T15:06:53.866Z,98818.34
2023-08-17T15:09:21.532Z,98816.44
2023-08-17T15:11:51.271Z,98810.25
2023-08-17T15:14:18.667Z,98806.72
2023-08-17T15:16:46.214Z,98808.59
2023-08-17T15:19:15.469Z,98804.84
2023-08-17T15:21:43.350Z,98813.97
2023-08-17T15:24:10.942Z,98809.66
2023-08-17T15:26:38.569Z,98813.16
2023-08-17T15:29:05.911Z,98807.78
2023-08-17T15:31:33.582Z,98813.97
2023-08-17T15:34:00.957Z,98812.38
2023-08-17T15:36:28.578Z,98811.56
2023-08-17T15:38:55.850Z,98816.09
2023-08-17T15:41:23.467Z,98816.09
2023-08-17T15:43:50.836Z,98816.09
2023-08-17T15:46:19.130Z,98816.09
2023-08-17T15:48:46.579Z,98816.94
2023-08-17T15:51:14.286Z,98817.19
2023-08-17T15:53:44.465Z,98816.09
2023-08-17T15:56:12.288Z,98819.88
2023-08-17T15:58:39.638Z,98817.19
2023-08-17T16:01:07.399Z,98823.38
2023-08-17T16:03:37.256Z,98823.63
2023-08-17T16:06:04.960Z,98823.63
2023-08-17T16:08:47.297Z,98823.63
2023-08-17T16:11:16.431Z,98823.63
2023-08-17T16:13:46.013Z,98821.19
2023-08-17T16:16:14.346Z,98818.22
2023-08-17T16:18:41.973Z,98823.63
2023-08-17T16:23:39.799Z,98805.00
2023-08-17T16:26:07.372Z,98801.47
2023-08-17T16:28:34.674Z,98797.94
2023-08-17T16:31:05.269Z,98791.75
2023-08-17T16:33:33.404Z,98794.44
2023-08-17T16:36:01.101Z,98791.75
2023-08-17T16:38:28.453Z,98791.75
2023-08-17T16:40:56.094Z,98807.94
2023-08-17T16:43:23.707Z,98810.63
2023-08-17T16:45:51.550Z,98799.84
2023-08-17T16:50:51.946Z,98807.94
2023-08-17T16:53:19.401Z,98808.75
2023-08-17T16:55:54.072Z,98807.94
2023-08-17T16:58:22.593Z,98806.31
2023-08-17T17:00:50.557Z,98811.69
2023-08-17T17:03:17.963Z,98820.59
2023-08-17T17:05:45.638Z,98810.03
2023-08-17T17:08:12.960Z,98810.84
2023-08-17T17:10:40.521Z,98799.25
2023-08-17T17:13:07.994Z,98793.88
2023-08-17T17:15:35.634Z,98788.47
2023-08-17T17:18:03.198Z,98792.25
2023-08-17T17:20:32.145Z,98797.63
2023-08-17T17:22:59.520Z,98796.78
2023-08-17T17:25:27.087Z,98796.00
2023-08-17T17:27:54.859Z,98780.88
2023-08-17T17:30:22.456Z,98780.88
2023-08-17T17:32:50.204Z,98772.78
2023-08-17T17:35:17.793Z,98746.88
2023-08-17T17:37:45.181Z,98746.06
2023-08-17T17:40:12.993Z,98742.56
2023-08-17T17:42:40.454Z,98751.69
2023-08-17T17:45:08.348Z,98778.66
2023-08-17T17:47:36.093Z,98775.94
2023-08-17T17:50:05.915Z,98764.59
2023-08-17T17:52:33.719Z,98766.25
2023-08-17T17:55:01.673Z,98753.81
2023-08-17T17:57:29.451Z,98761.91
2023-08-17T17:59:57.599Z,98752.19
2023-08-17T18:02:27.229Z,98741.41
2023-08-17T18:04:54.992Z,98728.97
2023-08-17T18:07:22.322Z,98720.88
2023-08-17T18:09:49.987Z,98706.59
2023-08-17T18:12:17.321Z,98704.69
2023-08-17T18:14:45.142Z,98699.81
2023-08-17T18:17:12.485Z,98703.81
2023-08-17T18:19:40.078Z,98710.50
2023-08-17T18:22:07.529Z,98698.06
2023-08-17T18:24:35.094Z,98698.88
2023-08-17T18:27:02.375Z,98713.44
2023-08-17T18:29:29.959Z,98698.06
2023-08-17T18:31:57.201Z,98694.81
2023-08-17T18:34:25.010Z,98707.25
2023-08-17T18:36:52.342Z,98710.97
2023-08-17T18:39:19.973Z,98711.78
2023-08-17T18:41:47.224Z,98720.13
2023-08-17T18:44:14.783Z,98727.16
2023-08-17T18:46:42.114Z,98730.09
2023-08-17T18:49:09.747Z,98746.25
2023-08-17T18:51:37.104Z,98737.31
2023-08-17T18:54:05.130Z,98735.69
2023-08-17T18:56:32.545Z,98734.06
2023-08-17T18:59:00.103Z,98740.28
2023-08-17T19:01:27.443Z,98749.41
2023-08-17T19:03:55.303Z,98762.88
2023-08-17T19:06:23.019Z,98785.25
2023-08-17T19:08:50.581Z,98761.00
2023-08-17T19:11:17.888Z,98777.44
2023-08-17T19:13:45.472Z,98765.81
2023-08-17T19:16:12.890Z,98781.19
2023-08-17T19:18:40.490Z,98776.59
2023-08-17T19:21:08.089Z,98757.16
2023-08-17T19:23:35.893Z,98750.13
2023-08-17T19:26:03.292Z,98752.84
2023-08-17T19:28:30.902Z,98756.56
2023-08-17T19:30:58.556Z,98752.25
2023-08-17T19:33:26.158Z,98763.84
2023-08-17T19:35:53.580Z,98762.22
2023-08-17T19:38:22.876Z,98761.41
2023-08-17T19:40:50.289Z,98772.19
2023-08-17T19:43:18.331Z,98777.56
2023-08-17T19:45:45.697Z,98770.53
2023-08-17T19:48:13.352Z,98772.19
2023-08-17T19:50:41.907Z,98765.16
2023-08-17T19:53:09.738Z,98760.84
2023-08-17T19:55:37.071Z,98747.34
2023-08-17T19:58:04.987Z,98765.16
2023-08-17T20:00:32.243Z,98795.88
2023-08-17T20:03:00.094Z,98822.81
2023-08-17T20:05:28.066Z,98828.19
2023-08-17T20:07:55.711Z,98836.28
2023-08-17T20:10:23.019Z,98814.97
2023-08-17T20:12:50.636Z,98818.47
2023-08-17T20:15:17.910Z,98826.78
2023-08-17T20:17:45.603Z,98851.88
2023-08-17T20:20:16.581Z,98904.09
2023-08-17T20:22:44.945Z,98896.03
2023-08-17T20:25:13.872Z,98904.94
2023-08-17T20:27:43.383Z,98909.50
2023-08-17T20:30:11.093Z,98880.94
2023-08-17T20:32:42.162Z,98827.03
2023-08-17T20:35:10.056Z,98824.06
2023-08-17T20:37:38.464Z,98803.38
2023-08-17T20:40:07.130Z,98775.34
2023-08-17T20:42:34.757Z,98768.91
2023-08-17T20:45:02.025Z,98761.88
2023-08-17T20:47:29.972Z,98785.09
2023-08-17T20:49:59.587Z,98795.88
2023-08-17T20:52:27.213Z,98802.88
2023-08-17T20:54:54.562Z,98806.63
2023-08-17T20:57:22.326Z,98820.13
2023-08-17T20:59:50.209Z,98807.44
2023-08-17T21:02:17.729Z,98810.97
2023-08-17T21:04:45.014Z,98812.84
2023-08-17T21:07:12.701Z,98812.84
2023-08-17T21:09:40.679Z,98814.47
2023-08-17T21:12:08.330Z,98810.16
2023-08-17T21:14:35.617Z,98806.63
2023-08-17T21:17:03.212Z,98812.03
2023-08-17T21:19:30.509Z,98817.41
2023-08-17T21:21:58.080Z,98816.56
2023-08-17T21:24:25.386Z,98814.72
2023-08-17T21:26:52.915Z,98828.19
2023-08-17T21:29:20.309Z,98819.28
2023-08-17T21:31:50.527Z,98808.50
2023-08-17T21:34:20.731Z,98805.00
2023-08-17T21:36:48.453Z,98812.03
2023-08-17T21:39:16.033Z,98807.69
2023-08-17T21:41:43.670Z,98799.59
2023-08-17T21:44:11.078Z,98799.59
2023-08-17T21:46:40.780Z,98794.22
2023-08-17T21:49:08.115Z,98797.72
2023-08-17T21:51:35.710Z,98787.19
2023-08-17T21:54:03.224Z,98782.63
2023-08-17T21:56:30.827Z,98784.50
2023-08-17T21:58:58.581Z,98781.81
2023-08-17T22:01:26.138Z,98787.19
2023-08-17T22:03:53.520Z,98800.66
2023-08-17T22:06:21.745Z,98814.16
2023-08-17T22:08:49.224Z,98824.06
2023-08-17T22:11:16.849Z,98826.78
2023-08-17T22:13:44.161Z,98823.28
2023-08-17T22:16:11.712Z,98836.75
2023-08-17T22:18:39.051Z,98827.03
2023-08-17T22:21:06.709Z,98829.72
2023-08-17T22:23:34.481Z,98825.97
2023-08-17T22:26:02.047Z,98820.81
2023-08-17T22:28:29.348Z,98822.69
2023-08-17T22:31:07.617Z,98810.03
2023-08-17T22:33:35.795Z,98820.00
2023-08-17T22:36:04.320Z,98826.19
2023-08-17T22:38:31.654Z,98827.25
2023-08-17T22:40:59.203Z,98830.78
2023-08-17T22:43:26.534Z,98824.56
2023-08-17T22:45:54.156Z,98819.19
2023-08-17T22:48:21.469Z,98807.59
2023-08-17T22:50:49.146Z,98810.28
2023-08-17T22:53:16.563Z,98812.16
2023-08-17T22:55:44.104Z,98815.66
2023-08-17T22:58:11.404Z,98817.56
2023-08-17T23:00:40.178Z,98814.03
2023-08-17T23:03:07.628Z,98810.50
2023-08-17T23:05:35.362Z,98816.72
2023-08-17T23:08:02.691Z,98811.31
2023-08-17T23:10:30.384Z,98803.50
2023-08-17T23:12:57.612Z,98801.63
2023-08-17T23:15:25.356Z,98790.84
2023-08-17T23:17:52.864Z,98796.22
2023-08-17T23:20:20.590Z,98792.94
2023-08-17T23:22:47.846Z,98798.94
2023-08-17T23:25:15.624Z,98797.28
2023-08-17T23:27:43.055Z,98790.25
2023-08-17T23:30:12.271Z,98782.19
2023-08-17T23:32:39.656Z,98779.47
2023-08-17T23:35:07.896Z,98774.09
2023-08-17T23:37:35.267Z,98777.81
2023-08-17T23:40:03.895Z,98778.66
2023-08-17T23:42:31.424Z,98767.91
2023-08-17T23:44:59.086Z,98757.94
2023-08-17T23:47:26.537Z,98755.47
2023-08-17T23:49:54.351Z,98758.97
2023-08-17T23:52:22.531Z,98767.06
2023-08-17T23:54:50.056Z,98766.25
2023-08-17T23:57:17.492Z,98771.63
2023-08-17T23:59:45.377Z,98773.50
